Time;durP1;ratioP1;P1;durP2;ratioP2;P2;SDS_P1;SDS_P2;PMS_P1;PMS_P2;Temp;Humidity;BMP_temperature;BMP_pressure;BME280_temperature;BME280_humidity;BME280_pressure;Samples;Min_cycle;Max_cycle;Signal;HPM_P1;HPM_P2
2022/04/06 00:14:49;;;;;;;6.87;6.27;;;11.10;99.90;;;;;;10430771;28;20216;-83
2022/04/06 00:19:53;;;;;;;7.27;6.67;;;11.10;99.90;;;;;;10360898;28;20229;-83
2022/04/06 00:24:56;;;;;;;6.23;5.77;;;11.20;99.90;;;;;;10336025;28;20257;-83
2022/04/06 00:30:00;;;;;;;7.53;6.63;;;11.20;99.90;;;;;;10357265;28;20594;-83
2022/04/06 00:40:23;;;;;;;6.67;6.17;;;11.20;99.90;;;;;;10377955;28;20198;-84
2022/04/06 00:45:27;;;;;;;6.63;5.97;;;11.20;99.90;;;;;;10387850;28;20226;-84
2022/04/06 00:50:29;;;;;;;6.77;6.17;;;11.20;99.90;;;;;;10368348;28;20313;-83
2022/04/06 00:55:33;;;;;;;6.83;6.20;;;11.20;99.90;;;;;;10338643;28;20226;-83
2022/04/06 01:00:37;;;;;;;6.83;6.33;;;11.20;99.90;;;;;;10372710;28;20947;-83
2022/04/06 01:05:39;;;;;;;6.67;6.17;;;11.30;99.90;;;;;;10348465;28;20218;-83
2022/04/06 01:10:41;;;;;;;7.13;6.63;;;11.20;99.90;;;;;;10358799;28;20211;-83
2022/04/06 01:15:45;;;;;;;7.70;7.10;;;11.20;99.90;;;;;;10342325;28;20219;-83
2022/04/06 01:20:47;;;;;;;7.07;6.57;;;11.30;99.90;;;;;;10355307;28;20237;-83
2022/04/06 01:25:53;;;;;;;6.67;6.07;;;11.30;99.90;;;;;;10338532;28;20269;-84
2022/04/06 01:30:56;;;;;;;6.90;6.40;;;11.30;99.90;;;;;;10351686;28;20306;-83
2022/04/06 01:35:59;;;;;;;7.47;6.63;;;11.30;99.90;;;;;;10377087;28;20718;-83
2022/04/06 01:41:03;;;;;;;7.20;6.60;;;11.30;99.90;;;;;;10351937;28;20222;-83
2022/04/06 01:46:05;;;;;;;6.90;6.30;;;11.30;99.90;;;;;;10379508;28;20208;-83
2022/04/06 01:56:28;;;;;;;6.50;6.10;;;11.30;99.90;;;;;;10374474;28;20330;-83
2022/04/06 02:01:30;;;;;;;7.03;6.43;;;11.30;99.90;;;;;;10381593;28;20249;-83
2022/04/06 02:06:32;;;;;;;6.47;5.97;;;11.30;99.90;;;;;;10362378;28;20233;-83
2022/04/06 02:11:36;;;;;;;6.70;6.20;;;11.30;99.90;;;;;;10394075;28;20258;-83
2022/04/06 02:16:39;;;;;;;6.90;6.23;;;11.20;99.90;;;;;;10379419;28;20214;-82
2022/04/06 02:21:41;;;;;;;6.80;6.30;;;11.30;99.90;;;;;;10368920;28;20233;-83
2022/04/06 02:26:45;;;;;;;7.37;6.87;;;11.20;99.90;;;;;;10371203;28;20207;-83
2022/04/06 02:31:47;;;;;;;7.77;7.07;;;11.20;99.90;;;;;;10355208;28;20257;-83
2022/04/06 02:36:49;;;;;;;6.27;5.87;;;11.20;99.90;;;;;;10327771;28;20211;-83
2022/04/06 02:41:53;;;;;;;7.03;6.43;;;11.20;99.90;;;;;;10344495;28;20571;-83
2022/04/06 02:46:55;;;;;;;7.23;6.63;;;11.20;99.90;;;;;;10377648;28;20199;-83
2022/04/06 02:51:57;;;;;;;7.03;6.43;;;11.20;99.90;;;;;;10362632;28;20226;-83
2022/04/06 02:57:01;;;;;;;7.67;7.07;;;11.20;99.90;;;;;;10368823;28;20285;-83
2022/04/06 03:02:03;;;;;;;6.80;6.30;;;11.30;99.90;;;;;;10380649;28;20698;-84
2022/04/06 03:07:06;;;;;;;7.73;7.13;;;11.30;99.90;;;;;;10359739;28;20226;-83
2022/04/06 03:12:10;;;;;;;6.90;6.30;;;11.30;99.90;;;;;;10348217;28;20240;-83
2022/04/06 03:17:15;;;;;;;7.47;6.87;;;11.20;99.90;;;;;;10357851;28;20237;-84
2022/04/06 03:22:18;;;;;;;7.67;6.90;;;11.20;99.90;;;;;;10371801;22;20317;-79
2022/04/06 03:27:22;;;;;;;7.10;6.60;;;11.20;99.90;;;;;;10337482;28;20207;-80
2022/04/06 03:32:24;;;;;;;7.87;7.27;;;11.20;99.90;;;;;;10369849;28;20226;-79
2022/04/06 03:37:26;;;;;;;7.30;6.70;;;11.20;99.90;;;;;;10340158;28;20210;-80
2022/04/06 03:42:29;;;;;;;6.87;6.37;;;11.20;99.90;;;;;;10381852;28;20232;-79
2022/04/06 03:47:32;;;;;;;6.90;6.40;;;11.20;99.90;;;;;;10356046;28;20214;-80
2022/04/06 03:52:34;;;;;;;7.83;7.13;;;11.20;99.90;;;;;;10347691;28;20223;-79
2022/04/06 03:57:39;;;;;;;8.57;7.97;;;11.20;99.90;;;;;;10362856;28;20237;-80
2022/04/06 04:02:41;;;;;;;7.50;6.97;;;11.20;99.90;;;;;;10366714;28;20257;-81
2022/04/06 04:07:45;;;;;;;6.90;6.17;;;11.20;99.90;;;;;;10355760;28;20202;-80
2022/04/06 04:12:48;;;;;;;7.13;6.23;;;11.20;99.90;;;;;;10379674;28;20249;-81
2022/04/06 04:17:51;;;;;;;7.80;7.20;;;11.20;99.90;;;;;;10368668;28;20211;-80
2022/04/06 04:22:53;;;;;;;7.40;6.80;;;11.20;99.90;;;;;;10387422;28;20702;-80
2022/04/06 04:27:56;;;;;;;7.23;6.53;;;11.20;99.90;;;;;;10353292;28;20228;-81
2022/04/06 04:32:58;;;;;;;7.57;6.97;;;11.20;99.90;;;;;;10383476;28;20281;-81
2022/04/06 04:38:00;;;;;;;8.17;7.50;;;11.20;99.90;;;;;;10364108;28;20199;-80
2022/04/06 04:43:04;;;;;;;6.80;6.30;;;11.20;99.90;;;;;;10356010;28;20238;-79
2022/04/06 04:48:06;;;;;;;6.70;6.10;;;11.30;99.90;;;;;;10350764;28;20705;-79
2022/04/06 04:53:08;;;;;;;6.70;6.20;;;11.30;99.90;;;;;;10338257;28;20326;-78
2022/04/06 04:58:12;;;;;;;7.27;6.67;;;11.30;99.90;;;;;;10360391;28;20211;-78
2022/04/06 05:03:14;;;;;;;7.63;6.77;;;11.20;99.90;;;;;;10364410;28;20230;-79
2022/04/06 05:08:17;;;;;;;6.40;5.90;;;11.20;99.90;;;;;;10349473;28;20222;-78
2022/04/06 05:13:20;;;;;;;8.03;7.43;;;11.20;99.90;;;;;;10368361;28;20597;-78
2022/04/06 05:18:22;;;;;;;7.63;6.93;;;11.30;99.90;;;;;;10377077;28;20194;-79
2022/04/06 05:23:25;;;;;;;7.70;7.10;;;11.30;99.90;;;;;;10380685;28;20238;-80
2022/04/06 05:28:28;;;;;;;7.33;6.83;;;11.30;99.90;;;;;;10378455;28;20214;-79
2022/04/06 05:33:30;;;;;;;8.90;7.43;;;11.30;99.90;;;;;;10360137;28;20309;-80
2022/04/06 05:38:34;;;;;;;8.97;8.07;;;11.30;99.90;;;;;;10376893;28;20199;-80
2022/04/06 05:43:38;;;;;;;8.30;7.60;;;11.40;99.90;;;;;;10377508;28;20229;-81
2022/04/06 05:48:40;;;;;;;7.80;7.10;;;11.40;99.90;;;;;;10358268;28;20309;-80
2022/04/06 05:53:42;;;;;;;7.53;6.97;;;11.40;99.90;;;;;;10359954;28;20762;-80
2022/04/06 05:58:45;;;;;;;7.90;7.20;;;11.40;99.90;;;;;;10377367;28;20283;-78
2022/04/06 06:03:48;;;;;;;8.87;8.07;;;11.50;99.90;;;;;;10373932;28;20257;-79
2022/04/06 06:08:50;;;;;;;7.73;7.13;;;11.50;99.90;;;;;;10372646;28;20226;-78
2022/04/06 06:13:54;;;;;;;8.63;7.93;;;11.60;99.90;;;;;;10354961;28;20222;-78
2022/04/06 06:18:56;;;;;;;7.90;7.13;;;11.70;99.90;;;;;;10354144;28;20281;-78
2022/04/06 06:24:00;;;;;;;7.30;6.70;;;11.70;99.90;;;;;;10360195;28;20701;-78
2022/04/06 06:29:04;;;;;;;8.63;7.23;;;11.70;99.90;;;;;;10371258;28;20277;-78
2022/04/06 06:34:06;;;;;;;7.40;6.70;;;11.70;99.90;;;;;;10371884;28;20261;-78
2022/04/06 06:39:08;;;;;;;8.13;7.43;;;11.80;99.90;;;;;;10352395;28;20693;-78
2022/04/06 06:44:12;;;;;;;7.80;7.20;;;11.90;99.90;;;;;;10342055;28;20714;-78
2022/04/06 06:49:15;;;;;;;7.20;6.70;;;11.90;99.90;;;;;;10355367;28;20206;-78
2022/04/06 06:54:19;;;;;;;6.20;5.80;;;11.90;99.90;;;;;;10347990;28;20296;-78
2022/04/06 06:59:30;;;;;;;7.40;5.43;;;12.00;99.90;;;;;;10373184;28;20195;-79
2022/04/06 07:04:33;;;;;;;6.60;6.00;;;12.10;99.90;;;;;;10359919;28;20776;-81
2022/04/06 07:09:35;;;;;;;6.23;5.70;;;12.20;99.90;;;;;;10367898;28;20218;-78
2022/04/06 07:14:38;;;;;;;5.03;4.57;;;12.40;99.90;;;;;;10348841;28;20664;-79
2022/04/06 07:19:41;;;;;;;4.33;4.03;;;12.40;99.90;;;;;;10355223;28;20195;-79
2022/04/06 07:24:43;;;;;;;4.53;4.23;;;12.60;99.90;;;;;;10326814;28;20234;-78
2022/04/06 07:29:46;;;;;;;6.00;4.37;;;12.70;99.90;;;;;;10331474;28;20234;-78
2022/04/06 07:34:48;;;;;;;4.23;3.93;;;12.70;99.90;;;;;;10337804;28;20628;-78
2022/04/06 07:39:50;;;;;;;4.03;3.73;;;12.80;99.90;;;;;;10319320;28;20251;-79
2022/04/06 07:44:56;;;;;;;4.23;3.70;;;12.80;99.90;;;;;;10316804;28;20215;-79
2022/04/06 07:49:58;;;;;;;3.37;3.17;;;12.80;99.90;;;;;;10319411;28;20765;-79
2022/04/06 07:55:01;;;;;;;3.53;3.33;;;12.90;99.90;;;;;;10337481;28;20226;-79
2022/04/06 08:00:07;;;;;;;4.07;3.80;;;13.00;99.90;;;;;;10357434;28;20203;-79
2022/04/06 08:05:09;;;;;;;3.17;2.97;;;13.20;99.90;;;;;;10322154;28;20310;-79
2022/04/06 08:10:14;;;;;;;2.93;2.73;;;13.30;99.90;;;;;;10324581;28;20219;-81
2022/04/06 08:15:18;;;;;;;3.57;2.53;;;13.40;99.90;;;;;;10345613;28;20227;-81
2022/04/06 08:20:20;;;;;;;3.50;3.30;;;13.50;99.90;;;;;;10312919;28;20199;-79
2022/04/06 08:25:23;;;;;;;2.03;1.93;;;13.70;99.90;;;;;;10384324;28;20230;-79
2022/04/06 08:30:26;;;;;;;2.13;2.03;;;13.80;99.90;;;;;;10376500;28;20301;-80
2022/04/06 08:35:28;;;;;;;2.10;2.00;;;13.90;99.90;;;;;;10372084;28;20222;-79
2022/04/06 08:40:32;;;;;;;2.20;2.10;;;14.00;99.90;;;;;;10377401;28;20557;-79
2022/04/06 08:45:42;;;;;;;1.60;1.50;;;14.10;99.90;;;;;;10377303;28;20218;-79
2022/04/06 08:50:46;;;;;;;2.17;2.07;;;14.10;99.90;;;;;;10347162;28;20257;-78
2022/04/06 08:55:48;;;;;;;2.47;1.60;;;14.20;99.90;;;;;;10359615;28;20256;-79
2022/04/06 09:00:52;;;;;;;1.57;1.47;;;14.30;99.90;;;;;;10376584;28;20227;-78
2022/04/06 09:06:01;;;;;;;1.43;1.33;;;14.40;99.90;;;;;;10376054;28;20226;-78
2022/04/06 09:11:11;;;;;;;1.67;1.57;;;14.40;99.90;;;;;;10378065;28;20222;-79
2022/04/06 09:16:16;;;;;;;1.30;1.20;;;14.60;99.90;;;;;;10377428;28;20241;-78
2022/04/06 09:21:19;;;;;;;1.50;1.40;;;14.70;99.90;;;;;;10355834;28;20187;-78
2022/04/06 09:26:21;;;;;;;1.43;1.40;;;14.80;99.90;;;;;;10352952;28;20289;-79
2022/04/06 09:31:25;;;;;;;1.30;1.30;;;14.90;99.90;;;;;;10370613;28;20242;-78
2022/04/06 09:36:28;;;;;;;0.90;0.90;;;15.00;99.90;;;;;;10369850;28;20249;-79
2022/04/06 09:41:30;;;;;;;1.20;1.17;;;15.00;99.90;;;;;;10336771;28;20273;-79
2022/04/06 09:51:54;;;;;;;1.03;1.00;;;15.10;99.90;;;;;;10371898;28;20330;-78
2022/04/06 09:56:57;;;;;;;1.27;1.27;;;15.00;99.90;;;;;;10357463;28;20210;-78
2022/04/06 10:02:07;;;;;;;0.83;0.83;;;15.10;99.90;;;;;;10374587;28;20215;-79
2022/04/06 10:07:09;;;;;;;0.80;0.80;;;15.20;99.90;;;;;;10337946;28;20211;-81
2022/04/06 10:12:11;;;;;;;1.37;0.90;;;15.40;99.90;;;;;;10375025;28;20809;-81
2022/04/06 10:17:16;;;;;;;1.00;1.00;;;15.50;99.90;;;;;;10376384;28;20203;-79
2022/04/06 10:22:32;;;;;;;1.13;1.13;;;15.60;99.90;;;;;;10523494;28;20917;-81
2022/04/06 10:27:41;;;;;;;0.87;0.87;;;15.70;99.90;;;;;;10484587;28;20680;-81
2022/04/06 10:32:45;;;;;;;1.57;1.40;;;15.60;99.90;;;;;;10489725;28;20723;-79
2022/04/06 10:38:12;;;;;;;0.90;0.90;;;15.70;99.90;;;;;;10491262;28;20742;-78
2022/04/06 10:43:52;;;;;;;1.30;1.20;;;15.60;99.90;;;;;;10485111;28;20221;-78
2022/04/06 10:48:58;;;;;;;1.27;1.27;;;15.60;99.90;;;;;;10488734;28;20338;-80
2022/04/06 10:54:41;;;;;;;1.77;0.90;;;15.70;99.90;;;;;;10489576;28;20220;-81
2022/04/06 10:59:43;;;;;;;1.00;1.00;;;15.80;99.90;;;;;;10488516;28;20571;-78
2022/04/06 11:04:46;;;;;;;1.13;1.13;;;15.70;99.90;;;;;;10492050;28;20240;-79
2022/04/06 11:10:09;;;;;;;1.83;1.00;;;15.50;99.90;;;;;;10494092;28;20204;-80
2022/04/06 11:15:21;;;;;;;1.60;1.50;;;15.50;99.90;;;;;;10474395;28;20217;-80
2022/04/06 11:20:31;;;;;;;0.97;0.97;;;15.40;99.90;;;;;;10488181;28;20315;-78
2022/04/06 11:25:34;;;;;;;1.40;1.30;;;15.50;99.90;;;;;;10485894;28;20224;-78
2022/04/06 11:30:38;;;;;;;1.53;1.10;;;15.60;99.90;;;;;;10476448;28;20198;-78
2022/04/06 11:35:41;;;;;;;1.23;1.13;;;15.60;99.90;;;;;;10441678;28;20224;-79
2022/04/06 11:40:44;;;;;;;1.37;1.37;;;15.70;99.90;;;;;;10441995;28;20251;-78
2022/04/06 11:45:47;;;;;;;0.90;0.90;;;15.50;99.90;;;;;;10458084;28;20300;-78
2022/04/06 11:50:49;;;;;;;1.23;1.13;;;15.50;99.90;;;;;;10458606;28;20229;-79
2022/04/06 11:55:54;;;;;;;2.53;1.17;;;15.50;99.90;;;;;;10458590;28;20650;-79
2022/04/06 12:01:00;;;;;;;0.90;0.90;;;15.50;99.90;;;;;;10458745;28;20221;-79
2022/04/06 12:06:04;;;;;;;1.47;1.37;;;15.50;99.90;;;;;;10460414;28;20834;-79
2022/04/06 12:11:07;;;;;;;1.20;1.20;;;15.40;99.90;;;;;;10458579;28;20259;-79
2022/04/06 12:16:10;;;;;;;1.50;1.40;;;15.50;99.90;;;;;;10460248;28;20270;-78
2022/04/06 12:21:19;;;;;;;1.27;1.13;;;15.60;99.90;;;;;;10460997;28;20705;-79
2022/04/06 12:26:25;;;;;;;1.23;1.10;;;15.60;99.40;;;;;;10459906;28;20233;-78
2022/04/06 12:31:34;;;;;;;1.00;1.00;;;15.50;99.00;;;;;;10459304;28;20692;-78
2022/04/06 12:36:36;;;;;;;1.20;1.10;;;15.50;99.30;;;;;;10461098;28;20632;-79
2022/04/06 12:41:59;;;;;;;0.97;0.97;;;15.40;99.90;;;;;;10452050;28;20278;-78
2022/04/06 12:47:02;;;;;;;1.20;1.10;;;15.40;98.80;;;;;;10459853;28;20288;-79
2022/04/06 12:52:15;;;;;;;1.00;1.00;;;15.30;99.90;;;;;;10460637;28;20270;-79
2022/04/06 12:57:19;;;;;;;1.03;1.03;;;15.30;98.70;;;;;;10459109;28;20193;-80
2022/04/06 13:02:29;;;;;;;0.97;0.97;;;15.20;98.30;;;;;;10441611;28;20221;-80
2022/04/06 13:07:32;;;;;;;1.17;0.90;;;15.10;98.80;;;;;;10458762;28;20198;-80
2022/04/06 13:12:40;;;;;;;1.13;1.10;;;15.20;98.40;;;;;;10448862;28;20342;-80
2022/04/06 13:17:44;;;;;;;1.30;1.20;;;15.40;99.90;;;;;;10452230;28;20213;-80
2022/04/06 13:22:47;;;;;;;1.50;1.40;;;15.40;99.30;;;;;;10458707;28;20229;-78
2022/04/06 13:27:50;;;;;;;1.00;1.00;;;15.50;99.90;;;;;;10449701;28;20629;-79
2022/04/06 13:32:53;;;;;;;2.90;1.23;;;15.50;99.90;;;;;;10449608;28;20657;-80
2022/04/06 13:37:55;;;;;;;1.00;1.00;;;15.60;98.90;;;;;;10441202;28;20551;-79
2022/04/06 13:42:58;;;;;;;0.90;0.90;;;15.60;98.40;;;;;;10452785;28;20247;-79
2022/04/06 13:48:01;;;;;;;1.00;1.00;;;15.70;98.00;;;;;;10460635;28;20737;-79
2022/04/06 13:53:03;;;;;;;1.10;1.10;;;15.80;98.50;;;;;;10450617;28;20217;-79
2022/04/06 13:58:08;;;;;;;1.00;1.00;;;16.00;99.10;;;;;;10456645;28;20713;-79
2022/04/06 14:03:10;;;;;;;1.13;1.03;;;16.00;99.00;;;;;;10447089;28;20225;-79
2022/04/06 14:08:12;;;;;;;1.30;1.20;;;15.90;99.00;;;;;;10451721;28;20204;-79
2022/04/06 14:13:16;;;;;;;1.00;1.00;;;15.80;98.80;;;;;;10453723;28;20658;-81
2022/04/06 14:18:19;;;;;;;1.10;1.10;;;15.70;98.40;;;;;;10463312;28;20211;-81
2022/04/06 14:23:22;;;;;;;1.10;1.10;;;15.70;98.00;;;;;;10435072;28;20286;-81
2022/04/06 14:28:25;;;;;;;1.57;1.03;;;15.80;99.90;;;;;;10434698;28;20538;-80
2022/04/06 14:33:28;;;;;;;1.40;1.30;;;15.80;99.30;;;;;;10459430;28;20633;-82
2022/04/06 14:38:30;;;;;;;0.70;0.70;;;15.80;99.70;;;;;;10436335;28;20198;-79
2022/04/06 14:43:34;;;;;;;1.60;1.50;;;16.00;97.80;;;;;;10454811;28;20221;-80
2022/04/06 14:48:36;;;;;;;1.07;1.07;;;16.10;99.30;;;;;;10462582;28;20327;-81
2022/04/06 14:53:38;;;;;;;1.00;1.00;;;16.10;98.80;;;;;;10442570;28;20312;-79
2022/04/06 14:58:41;;;;;;;1.00;1.00;;;16.10;99.90;;;;;;10451819;28;20737;-79
2022/04/06 15:03:44;;;;;;;1.27;1.17;;;16.20;99.90;;;;;;10460329;28;20252;-79
2022/04/06 15:08:46;;;;;;;1.67;1.57;;;16.20;99.90;;;;;;10462691;28;20232;-79
2022/04/06 15:13:49;;;;;;;0.87;0.87;;;16.20;99.90;;;;;;10460077;28;20217;-79
2022/04/06 15:18:51;;;;;;;1.00;1.00;;;16.10;99.90;;;;;;10452136;28;20217;-80
2022/04/06 15:24:28;;;;;;;1.13;1.13;;;15.90;99.90;;;;;;10459466;22;20576;-82
2022/04/06 15:29:46;;;;;;;1.20;1.10;;;15.70;99.90;;;;;;10397384;28;20300;-83
2022/04/06 15:40:46;;;;;;;1.03;1.03;;;15.50;99.90;;;;;;10390435;28;20214;-83
2022/04/06 15:45:59;;;;;;;1.30;1.20;;;15.30;99.90;;;;;;10412921;28;20218;-82
2022/04/06 15:51:06;;;;;;;3.60;1.40;;;15.20;99.90;;;;;;10414357;28;20198;-84
2022/04/06 15:56:25;;;;;;;1.10;1.10;;;15.10;99.90;;;;;;10388670;28;20221;-82
2022/04/06 16:01:28;;;;;;;1.20;1.10;;;15.20;99.90;;;;;;10406005;28;20308;-82
2022/04/06 16:06:31;;;;;;;1.10;1.00;;;15.20;99.90;;;;;;10383312;28;20245;-81
2022/04/06 16:11:33;;;;;;;4.20;2.87;;;15.20;99.90;;;;;;10377083;28;20688;-81
2022/04/06 16:16:37;;;;;;;1.30;1.30;;;15.10;99.90;;;;;;10410835;28;20983;-81
2022/04/06 16:21:39;;;;;;;1.90;1.60;;;15.10;99.90;;;;;;10396328;28;20245;-81
2022/04/06 16:26:41;;;;;;;1.60;1.50;;;15.10;99.90;;;;;;10420191;28;20220;-81
2022/04/06 16:31:45;;;;;;;1.70;1.60;;;15.20;99.90;;;;;;10382357;28;20195;-81
2022/04/06 16:36:47;;;;;;;1.47;1.37;;;15.20;99.90;;;;;;10403992;28;20670;-81
2022/04/06 16:41:49;;;;;;;1.23;1.23;;;15.20;99.90;;;;;;10421758;28;20213;-81
2022/04/06 16:46:53;;;;;;;1.60;1.50;;;15.10;99.90;;;;;;10403852;28;20213;-81
2022/04/06 16:57:20;;;;;;;1.77;1.67;;;15.00;99.90;;;;;;10419701;28;20201;-81
2022/04/06 17:02:25;;;;;;;1.83;1.73;;;15.00;99.90;;;;;;10403867;28;20226;-80
2022/04/06 17:07:27;;;;;;;1.00;1.00;;;14.90;99.90;;;;;;10401211;28;20224;-80
2022/04/06 17:12:32;;;;;;;5.40;2.90;;;14.80;99.90;;;;;;10415346;28;20218;-80
2022/04/06 17:17:42;;;;;;;10.73;6.90;;;14.80;99.90;;;;;;10382919;28;20201;-80
2022/04/06 17:22:45;;;;;;;4.90;3.30;;;14.80;99.90;;;;;;10375335;28;20276;-80
2022/04/06 17:27:47;;;;;;;1.87;1.77;;;14.80;99.90;;;;;;10397641;28;20237;-82
2022/04/06 17:32:59;;;;;;;2.90;2.43;;;14.70;99.90;;;;;;10402550;28;20218;-82
2022/04/06 17:38:06;;;;;;;1.97;1.87;;;14.60;99.90;;;;;;10398442;28;20209;-82
2022/04/06 17:43:12;;;;;;;1.83;1.73;;;14.60;99.90;;;;;;10396707;28;20229;-81
2022/04/06 17:48:15;;;;;;;2.40;2.20;;;14.50;99.90;;;;;;10408081;28;20653;-81
2022/04/06 17:53:18;;;;;;;3.07;2.63;;;14.50;99.90;;;;;;10394131;28;20210;-82
2022/04/06 17:58:21;;;;;;;2.07;1.60;;;14.50;99.90;;;;;;10420499;28;20213;-82
2022/04/06 18:03:24;;;;;;;2.70;2.50;;;14.40;99.90;;;;;;10425308;28;20228;-82
2022/04/06 18:08:27;;;;;;;2.23;2.03;;;14.30;99.90;;;;;;10415389;28;20735;-82
2022/04/06 18:13:41;;;;;;;1.90;1.80;;;14.20;99.90;;;;;;10428955;28;20214;-80
2022/04/06 18:18:54;;;;;;;2.00;1.90;;;14.10;99.90;;;;;;10427805;28;20263;-82
2022/04/06 18:23:56;;;;;;;2.10;2.00;;;14.10;99.90;;;;;;10398847;28;20788;-80
2022/04/06 18:28:59;;;;;;;1.90;1.70;;;14.00;99.90;;;;;;10387635;28;20597;-83
2022/04/06 18:34:02;;;;;;;2.47;2.27;;;14.00;99.90;;;;;;10397904;28;20279;-84
2022/04/06 18:39:11;;;;;;;4.47;2.57;;;13.90;99.90;;;;;;10375814;28;20213;-80
2022/04/06 18:44:13;;;;;;;2.43;2.23;;;13.90;99.90;;;;;;10383866;28;20234;-82
2022/04/06 18:49:22;;;;;;;2.30;2.20;;;13.80;99.90;;;;;;10401366;28;20213;-83
2022/04/06 18:54:28;;;;;;;2.13;2.03;;;13.80;99.90;;;;;;10383990;28;20233;-82
2022/04/06 18:59:33;;;;;;;2.97;2.67;;;13.70;99.90;;;;;;10408946;28;20320;-81
2022/04/06 19:04:37;;;;;;;2.77;2.57;;;13.70;99.90;;;;;;10397419;28;20225;-81
2022/04/06 19:09:40;;;;;;;3.70;2.30;;;13.60;99.90;;;;;;10389740;28;20194;-83
2022/04/06 19:14:45;;;;;;;2.03;1.93;;;13.50;99.90;;;;;;10384858;28;20276;-80
2022/04/06 19:19:48;;;;;;;2.17;2.00;;;13.50;99.90;;;;;;10377842;28;20214;-82
2022/04/06 19:24:52;;;;;;;3.20;2.30;;;13.40;99.90;;;;;;10377591;28;20324;-81
2022/04/06 19:30:13;;;;;;;2.00;1.90;;;13.40;99.90;;;;;;10382102;28;20205;-82
2022/04/06 19:35:17;;;;;;;2.73;2.60;;;13.30;99.90;;;;;;10378268;28;20803;-82
2022/04/06 19:40:19;;;;;;;2.80;2.20;;;13.30;99.90;;;;;;10380065;28;20271;-82
2022/04/06 19:45:21;;;;;;;2.73;2.53;;;13.30;99.90;;;;;;10387552;28;20222;-81
2022/04/06 19:50:25;;;;;;;2.50;2.40;;;13.30;99.90;;;;;;10412935;28;20733;-83
2022/04/06 19:55:27;;;;;;;2.30;2.13;;;13.30;99.90;;;;;;10398664;28;20619;-81
2022/04/06 20:00:30;;;;;;;2.40;2.30;;;13.20;99.90;;;;;;10411750;28;20560;-83
2022/04/06 20:05:33;;;;;;;2.00;1.90;;;13.20;99.90;;;;;;10387811;28;20222;-83
2022/04/06 20:10:36;;;;;;;1.73;1.63;;;13.20;99.90;;;;;;10388456;28;20293;-82
2022/04/06 20:15:52;;;;;;;2.17;2.07;;;13.20;99.90;;;;;;10408682;28;20246;-83
2022/04/06 20:20:55;;;;;;;2.07;1.97;;;13.10;99.90;;;;;;10383761;28;20225;-84
2022/04/06 20:25:58;;;;;;;1.90;1.80;;;13.10;99.90;;;;;;10392206;28;20920;-84
2022/04/06 20:31:10;;;;;;;2.87;2.10;;;13.10;99.90;;;;;;10381598;28;20212;-84
2022/04/06 20:36:14;;;;;;;2.20;2.10;;;13.10;99.90;;;;;;10399379;28;20600;-83
2022/04/06 20:41:16;;;;;;;2.80;2.60;;;13.00;99.90;;;;;;10402566;28;20206;-85
2022/04/06 20:46:20;;;;;;;2.10;2.00;;;13.00;99.90;;;;;;10389879;28;20221;-84
2022/04/06 20:51:23;;;;;;;2.20;2.10;;;13.00;99.90;;;;;;10389540;28;20252;-84
2022/04/06 20:56:25;;;;;;;2.30;2.20;;;12.90;99.90;;;;;;10388728;28;20664;-84
2022/04/06 21:01:28;;;;;;;2.60;2.47;;;12.90;99.90;;;;;;10405774;28;20697;-84
2022/04/06 21:06:31;;;;;;;2.67;2.50;;;12.80;99.90;;;;;;10405908;28;20221;-83
2022/04/06 21:11:33;;;;;;;2.27;2.17;;;12.80;99.90;;;;;;10439955;28;20198;-83
2022/04/06 21:16:35;;;;;;;2.40;2.30;;;12.80;99.90;;;;;;10376064;28;20783;-83
2022/04/06 21:21:39;;;;;;;2.30;2.20;;;12.80;99.90;;;;;;10414379;28;20222;-82
2022/04/06 21:26:41;;;;;;;2.63;2.43;;;12.90;99.90;;;;;;10401818;22;20245;-79
2022/04/06 21:31:43;;;;;;;2.47;2.37;;;12.80;99.90;;;;;;10351962;28;20759;-79
2022/04/06 21:36:47;;;;;;;1.90;1.80;;;12.80;99.90;;;;;;10355759;28;20308;-82
2022/04/06 21:41:49;;;;;;;1.90;1.80;;;12.80;99.90;;;;;;10357675;28;20214;-79
2022/04/06 21:46:51;;;;;;;2.63;2.43;;;12.80;99.90;;;;;;10375061;28;20281;-79
2022/04/06 21:51:56;;;;;;;3.00;2.80;;;12.60;99.90;;;;;;10360274;28;20199;-81
2022/04/06 21:57:14;;;;;;;3.47;3.27;;;12.50;99.90;;;;;;10384997;28;20186;-78
2022/04/06 22:02:16;;;;;;;3.20;2.83;;;12.20;99.90;;;;;;10366691;28;20219;-78
2022/04/06 22:07:20;;;;;;;3.20;3.00;;;12.00;99.90;;;;;;10346377;28;20214;-78
2022/04/06 22:12:28;;;;;;;4.23;3.90;;;11.80;99.90;;;;;;10360198;28;20337;-79
2022/04/06 22:17:30;;;;;;;3.67;3.47;;;11.80;99.90;;;;;;10359279;28;20197;-79
2022/04/06 22:22:34;;;;;;;3.83;3.53;;;11.70;99.90;;;;;;10344013;28;20226;-78
2022/04/06 22:27:36;;;;;;;4.00;3.70;;;11.80;99.90;;;;;;10393167;28;20229;-79
2022/04/06 22:32:38;;;;;;;3.70;3.40;;;11.80;99.90;;;;;;10371822;28;20226;-79
2022/04/06 22:37:41;;;;;;;3.10;3.00;;;11.90;99.90;;;;;;10388605;28;20256;-78
2022/04/06 22:42:44;;;;;;;2.90;2.80;;;12.00;99.90;;;;;;10359917;28;20225;-78
2022/04/06 22:47:46;;;;;;;3.17;3.00;;;12.00;99.90;;;;;;10351036;28;20221;-79
2022/04/06 22:52:49;;;;;;;3.33;3.13;;;12.00;99.90;;;;;;10348846;28;20218;-79
2022/04/06 22:57:53;;;;;;;3.10;2.93;;;12.10;99.90;;;;;;10348201;28;20404;-79
2022/04/06 23:02:55;;;;;;;3.13;2.93;;;12.20;99.90;;;;;;10338134;28;20321;-79
2022/04/06 23:07:58;;;;;;;2.90;2.73;;;12.20;99.90;;;;;;10354761;28;20651;-77
2022/04/06 23:13:01;;;;;;;2.83;2.63;;;12.20;99.90;;;;;;10366344;28;20210;-78
2022/04/06 23:18:03;;;;;;;3.37;3.17;;;12.20;99.90;;;;;;10343760;28;20654;-78
2022/04/06 23:23:06;;;;;;;2.73;2.63;;;12.20;99.90;;;;;;10346278;28;20281;-78
2022/04/06 23:28:09;;;;;;;2.70;2.60;;;12.20;99.90;;;;;;10362636;28;20221;-78
2022/04/06 23:33:11;;;;;;;2.97;2.77;;;12.10;99.90;;;;;;10386371;28;20215;-78
2022/04/06 23:38:14;;;;;;;2.87;2.77;;;12.00;99.90;;;;;;10376736;28;20253;-78
2022/04/06 23:43:17;;;;;;;3.13;2.93;;;11.90;99.90;;;;;;10394009;28;20260;-77
2022/04/06 23:48:22;;;;;;;3.50;3.00;;;11.80;99.90;;;;;;10404474;28;20681;-77
2022/04/06 23:53:25;;;;;;;2.70;2.50;;;11.70;99.90;;;;;;10409311;28;20222;-78
2022/04/06 23:58:27;;;;;;;2.90;2.80;;;11.60;99.90;;;;;;10381871;28;20288;-78
